This is the latest recevied weather packets stored in our database for station/object LZ3SV-3. If no packets are shown the sender has not sent any weather packets the latest 10 day(s).
| Time | Temp. | Humidity | Pressure | Rain* | Wind** | Luminosity | Snow |
|---|---|---|---|---|---|---|---|
| 1777543846 | 16.11° C | 64% | 992.8 hPa | - | - | - | - |
| 1777543246 | 16.11° C | 61% | 992.9 hPa | - | - | - | - |
| 1777542646 | 16.67° C | 62% | 993 hPa | - | - | - | - |
| 1777537846 | 14.44° C | 81% | 993.6 hPa | - | - | - | - |
| 1777536646 | 15° C | 82% | 993.7 hPa | - | - | - | - |
| 1777528245 | 11.67° C | 100% | 993.4 hPa | - | - | - | - |
| 1777526446 | 10.56° C | 100% | 993.4 hPa | - | - | - | - |
| 1777522245 | 10° C | 100% | 993.1 hPa | - | - | - | - |
| 1777505446 | 13.33° C | 79% | 992 hPa | - | - | - | - |
| 1777504844 | 13.33° C | 81% | 991.9 hPa | - | - | - | - |
| 1777496443 | 13.89° C | 75% | 991.8 hPa | - | - | - | - |
| 1777494043 | 14.44° C | 66% | 991.7 hPa | - | - | - | - |
| 1777490443 | 16.67° C | 50% | 991.6 hPa | - | - | - | - |
| 1777486843 | 17.22° C | 48% | 991.8 hPa | - | - | - | - |
| 1777483243 | 17.22° C | 46% | 991.4 hPa | - | - | - | - |
| 1777481443 | 17.78° C | 44% | 990.9 hPa | - | - | - | - |
| 1777480243 | 18.89° C | 42% | 990.4 hPa | - | - | - | - |
| 1777478442 | 19.44° C | 41% | 990.9 hPa | - | - | - | - |
| 1777477242 | 19.44° C | 42% | 991 hPa | - | - | - | - |
| 1777476642 | 20° C | 41% | 991.1 hPa | - | - | - | - |
| 1777474242 | 21.11° C | 39% | 991.2 hPa | - | - | - | - |
| 1777472442 | 23.33° C | 36% | 991.1 hPa | - | - | - | - |
| 1777467042 | 23.89° C | 40% | 991.4 hPa | - | - | - | - |
| 1777460445 | 22.22° C | 41% | 992.5 hPa | - | - | - | - |
| 1777456241 | 16.67° C | 54% | 993.4 hPa | - | - | - | - |
* Rain since midnight (hover to see other rain measurements)
** Current wind speed in m/s (hover to see current wind gust speed)